createdAt,value
2023-01-03T00:01:28.151Z,1.50
2023-01-03T00:03:56.808Z,2.00
2023-01-03T00:06:25.894Z,1.77
2023-01-03T00:08:54.545Z,2.27
2023-01-03T00:11:44.616Z,2.03
2023-01-03T00:14:14.579Z,1.50
2023-01-03T00:16:42.068Z,1.83
2023-01-03T00:19:10.493Z,1.70
2023-01-03T00:21:38.260Z,1.77
2023-01-03T00:24:06.252Z,1.87
2023-01-03T00:26:33.814Z,1.90
2023-01-03T00:29:01.829Z,1.60
2023-01-03T00:31:29.884Z,1.73
2023-01-03T00:33:57.252Z,2.10
2023-01-03T00:36:24.529Z,1.43
2023-01-03T00:38:51.794Z,1.83
2023-01-03T00:41:20.170Z,1.60
2023-01-03T00:43:49.732Z,1.90
2023-01-03T00:46:20.946Z,1.67
2023-01-03T00:48:49.116Z,1.60
2023-01-03T00:51:19.575Z,1.47
2023-01-03T00:53:48.308Z,1.50
2023-01-03T00:56:17.321Z,1.87
2023-01-03T00:58:45.337Z,1.67
2023-01-03T01:01:15.318Z,1.90
2023-01-03T01:03:44.855Z,1.43
2023-01-03T01:06:15.041Z,1.63
2023-01-03T01:08:42.905Z,1.40
2023-01-03T01:11:10.755Z,1.20
2023-01-03T01:13:38.963Z,1.50
2023-01-03T01:16:08.452Z,1.40
2023-01-03T01:18:36.660Z,1.10
2023-01-03T01:21:05.907Z,1.43
2023-01-03T01:23:35.860Z,1.10
2023-01-03T01:26:03.896Z,1.50
2023-01-03T01:28:32.356Z,1.13
2023-01-03T01:31:00.520Z,1.23
2023-01-03T01:33:28.494Z,1.57
2023-01-03T01:35:55.804Z,1.43
2023-01-03T01:38:23.122Z,1.50
2023-01-03T01:40:51.321Z,1.63
2023-01-03T01:43:38.891Z,1.40
2023-01-03T01:46:15.329Z,1.70
2023-01-03T01:48:43.007Z,1.67
2023-01-03T01:51:11.881Z,1.80
2023-01-03T01:53:42.185Z,1.50
2023-01-03T01:56:14.498Z,1.90
2023-01-03T01:58:44.445Z,1.60
2023-01-03T02:01:14.922Z,1.33
2023-01-03T02:03:45.025Z,1.30
2023-01-03T02:06:15.215Z,1.70
2023-01-03T02:08:42.598Z,1.70
2023-01-03T02:11:23.781Z,1.47
2023-01-03T02:14:00.091Z,2.20
2023-01-03T02:16:47.770Z,1.70
2023-01-03T02:19:39.280Z,1.60
2023-01-03T02:22:45.866Z,1.43
2023-01-03T02:25:38.705Z,2.00
2023-01-03T02:28:44.957Z,2.10
2023-01-03T02:31:16.784Z,1.87
2023-01-03T02:33:54.821Z,1.63
2023-01-03T02:36:31.586Z,1.53
2023-01-03T02:39:05.814Z,1.77
2023-01-03T02:41:41.085Z,1.97
2023-01-03T02:44:14.892Z,1.70
2023-01-03T02:46:47.006Z,1.70
2023-01-03T02:49:20.345Z,1.97
2023-01-03T02:51:50.543Z,1.23
2023-01-03T02:54:23.057Z,1.30
2023-01-03T02:56:55.847Z,1.70
2023-01-03T02:59:29.791Z,1.97
2023-01-03T03:02:00.401Z,1.60
2023-01-03T03:04:28.912Z,1.40
2023-01-03T03:07:01.517Z,1.20
2023-01-03T03:09:29.540Z,1.60
2023-01-03T03:12:23.350Z,1.60
2023-01-03T03:14:52.679Z,3.27
2023-01-03T03:17:27.868Z,2.10
2023-01-03T03:20:15.314Z,1.70
2023-01-03T03:23:05.641Z,1.23
2023-01-03T03:25:35.905Z,1.13
2023-01-03T03:28:25.120Z,1.37
2023-01-03T03:30:56.252Z,1.13
2023-01-03T03:33:26.188Z,1.40
2023-01-03T03:35:58.447Z,1.83
2023-01-03T03:38:33.116Z,1.67
2023-01-03T03:41:27.473Z,1.60
2023-01-03T03:44:20.650Z,1.00
2023-01-03T03:46:55.214Z,1.17
2023-01-03T03:49:38.849Z,1.53
2023-01-03T03:52:09.332Z,1.43
2023-01-03T03:54:39.751Z,1.30
2023-01-03T03:57:12.360Z,1.50
2023-01-03T03:59:41.217Z,1.53
2023-01-03T04:02:10.373Z,1.43
2023-01-03T04:04:42.854Z,1.20
2023-01-03T04:07:10.200Z,1.60
2023-01-03T04:09:37.455Z,1.90
2023-01-03T04:12:05.085Z,1.50
2023-01-03T04:14:32.697Z,3.37
2023-01-03T04:17:00.003Z,1.67
2023-01-03T04:19:27.479Z,2.00
2023-01-03T04:21:55.377Z,1.70
2023-01-03T04:24:22.714Z,1.83
2023-01-03T04:26:49.945Z,1.57
2023-01-03T04:29:17.392Z,1.20
2023-01-03T04:31:44.713Z,1.57
2023-01-03T04:34:11.993Z,1.43
2023-01-03T04:36:39.217Z,2.00
2023-01-03T04:39:07.115Z,1.93
2023-01-03T04:41:34.353Z,2.00
2023-01-03T04:44:01.341Z,1.60
2023-01-03T04:46:29.235Z,3.13
2023-01-03T04:48:56.556Z,4.37
2023-01-03T04:51:23.986Z,3.03
2023-01-03T04:53:51.222Z,2.77
2023-01-03T04:56:23.373Z,2.50
2023-01-03T04:58:50.598Z,2.50
2023-01-03T05:01:18.001Z,2.90
2023-01-03T05:03:45.349Z,2.50
2023-01-03T05:06:12.954Z,2.23
2023-01-03T05:08:40.289Z,2.40
2023-01-03T05:11:07.919Z,2.07
2023-01-03T05:13:35.947Z,2.20
2023-01-03T05:16:07.794Z,1.70
2023-01-03T05:18:35.526Z,1.90
2023-01-03T05:21:24.903Z,1.80
2023-01-03T05:24:10.473Z,2.80
2023-01-03T05:26:40.590Z,3.80
2023-01-03T05:29:09.812Z,2.77
2023-01-03T05:31:37.125Z,2.93
2023-01-03T05:34:04.579Z,2.30
2023-01-03T05:36:34.931Z,12.50
2023-01-03T05:39:02.506Z,3.47
2023-01-03T05:41:59.310Z,2.97
2023-01-03T05:44:27.863Z,2.73
2023-01-03T05:46:55.211Z,3.30
2023-01-03T05:49:22.445Z,3.70
2023-01-03T05:51:49.927Z,2.33
2023-01-03T05:54:18.922Z,2.57
2023-01-03T05:56:46.214Z,2.87
2023-01-03T05:59:13.696Z,2.93
2023-01-03T06:01:41.664Z,2.67
2023-01-03T06:04:09.024Z,3.27
2023-01-03T06:06:36.365Z,2.40
2023-01-03T06:09:06.739Z,3.33
2023-01-03T06:11:34.311Z,3.20
2023-01-03T06:14:02.018Z,3.23
2023-01-03T06:16:48.305Z,3.47
2023-01-03T06:19:18.574Z,2.63
2023-01-03T06:21:47.156Z,3.30
2023-01-03T06:24:15.933Z,3.10
2023-01-03T06:26:44.158Z,3.00
2023-01-03T06:29:12.305Z,3.30
2023-01-03T06:31:41.046Z,2.80
2023-01-03T06:34:09.265Z,3.30
2023-01-03T06:36:44.698Z,3.00
2023-01-03T06:39:13.979Z,2.70
2023-01-03T06:41:44.410Z,3.30
2023-01-03T06:44:12.830Z,4.20
2023-01-03T06:46:57.810Z,2.90
2023-01-03T06:49:44.238Z,3.40
2023-01-03T06:52:34.715Z,3.67
2023-01-03T06:55:03.754Z,3.57
2023-01-03T06:57:31.342Z,3.43
2023-01-03T07:00:00.418Z,3.40
2023-01-03T07:02:29.609Z,3.53
2023-01-03T07:04:58.563Z,3.63
2023-01-03T07:07:29.231Z,3.80
2023-01-03T07:09:57.664Z,3.80
2023-01-03T07:12:45.874Z,5.00
2023-01-03T07:15:14.148Z,7.80
2023-01-03T07:17:42.194Z,4.10
2023-01-03T07:20:10.225Z,4.63
2023-01-03T07:22:40.132Z,4.27
2023-01-03T07:25:09.072Z,5.50
2023-01-03T07:27:36.828Z,6.53
2023-01-03T07:30:06.390Z,8.27
2023-01-03T07:32:35.183Z,7.63
2023-01-03T07:35:05.500Z,20.23
2023-01-03T07:37:34.483Z,28.80
2023-01-03T07:40:07.420Z,9.53
2023-01-03T07:42:52.887Z,5.10
2023-01-03T07:45:21.143Z,5.20
2023-01-03T07:47:49.600Z,6.60
2023-01-03T07:50:20.679Z,4.30
2023-01-03T07:52:48.953Z,4.40
2023-01-03T07:55:18.789Z,4.60
2023-01-03T07:57:47.944Z,5.10
2023-01-03T08:00:17.247Z,5.57
2023-01-03T08:02:46.140Z,7.37
2023-01-03T08:05:14.938Z,7.57
2023-01-03T08:07:42.369Z,6.00
2023-01-03T08:10:27.920Z,5.53
2023-01-03T08:13:13.862Z,7.20
2023-01-03T08:15:44.045Z,8.97
2023-01-03T08:18:11.407Z,6.83
2023-01-03T08:20:39.448Z,9.17
2023-01-03T08:23:06.869Z,7.70
2023-01-03T08:25:34.109Z,5.40
2023-01-03T08:28:02.535Z,5.20
2023-01-03T08:30:30.720Z,5.60
2023-01-03T08:33:02.741Z,7.13
2023-01-03T08:35:33.737Z,7.30
2023-01-03T08:38:04.163Z,9.40
2023-01-03T08:40:41.409Z,9.30
2023-01-03T08:43:13.406Z,13.90
2023-01-03T08:45:40.673Z,14.07
2023-01-03T08:48:09.995Z,8.13
2023-01-03T08:50:37.287Z,8.97
2023-01-03T08:53:05.218Z,5.97
2023-01-03T08:55:32.803Z,5.20
2023-01-03T08:58:00.328Z,5.00
2023-01-03T09:00:28.837Z,5.30
2023-01-03T09:02:59.688Z,4.17
2023-01-03T09:05:27.694Z,5.13
2023-01-03T09:07:55.775Z,3.70
2023-01-03T09:10:23.187Z,6.37
2023-01-03T09:12:51.189Z,6.23
2023-01-03T09:15:18.504Z,4.93
2023-01-03T09:17:48.535Z,5.50
2023-01-03T09:20:17.437Z,4.73
2023-01-03T09:22:44.987Z,5.10
2023-01-03T09:25:12.306Z,5.40
2023-01-03T09:27:39.965Z,6.90
2023-01-03T09:30:08.375Z,7.10
2023-01-03T09:32:35.792Z,4.83
2023-01-03T09:35:04.918Z,5.07
2023-01-03T09:37:49.008Z,7.27
2023-01-03T09:40:19.335Z,3.50
2023-01-03T09:43:04.907Z,4.67
2023-01-03T09:45:39.513Z,4.37
2023-01-03T09:48:08.155Z,4.10
2023-01-03T09:51:14.113Z,5.50
2023-01-03T09:53:48.612Z,4.17
2023-01-03T09:56:34.625Z,3.87
2023-01-03T09:59:27.813Z,4.60
2023-01-03T10:02:24.444Z,3.40
2023-01-03T10:05:09.435Z,4.50
2023-01-03T10:08:04.567Z,4.10
2023-01-03T10:10:41.489Z,4.87
2023-01-03T10:13:20.576Z,4.13
2023-01-03T10:15:57.900Z,4.20
2023-01-03T10:18:45.038Z,3.50
2023-01-03T10:21:20.204Z,4.47
2023-01-03T10:23:49.464Z,4.03
2023-01-03T10:26:18.636Z,5.03
2023-01-03T10:28:47.656Z,4.53
2023-01-03T10:31:31.436Z,3.90
2023-01-03T10:33:58.744Z,3.90
2023-01-03T10:36:26.061Z,6.13
2023-01-03T10:39:04.908Z,4.80
2023-01-03T10:41:41.744Z,4.23
2023-01-03T10:44:24.088Z,5.87
2023-01-03T10:46:53.962Z,5.40
2023-01-03T10:49:29.077Z,4.20
2023-01-03T10:52:00.656Z,3.30
2023-01-03T10:54:43.726Z,3.53
2023-01-03T10:57:37.539Z,2.93
2023-01-03T11:00:22.407Z,2.87
2023-01-03T11:02:50.740Z,2.87
2023-01-03T11:05:20.570Z,2.50
2023-01-03T11:07:53.874Z,3.17
2023-01-03T11:10:23.454Z,4.23
2023-01-03T11:12:51.066Z,2.63
2023-01-03T11:15:23.530Z,3.73
2023-01-03T11:17:54.733Z,3.20
2023-01-03T11:20:25.084Z,3.20
2023-01-03T11:22:59.740Z,3.00
2023-01-03T11:25:39.381Z,3.17
2023-01-03T11:28:37.694Z,2.90
2023-01-03T11:31:11.119Z,2.67
2023-01-03T11:33:56.067Z,3.10
2023-01-03T11:36:32.319Z,2.50
2023-01-03T11:39:18.179Z,2.10
2023-01-03T11:42:11.352Z,1.93
2023-01-03T11:45:06.922Z,1.90
2023-01-03T11:47:44.966Z,1.80
2023-01-03T11:50:25.484Z,2.07
2023-01-03T11:53:01.521Z,2.67
2023-01-03T11:55:45.850Z,10.57
2023-01-03T11:58:48.047Z,2.30
2023-01-03T12:01:25.359Z,5.40
2023-01-03T12:04:31.677Z,2.17
2023-01-03T12:10:13.587Z,1.70
2023-01-03T12:13:17.161Z,1.50
2023-01-03T12:15:50.662Z,2.23
2023-01-03T12:18:25.919Z,2.00
2023-01-03T12:20:57.629Z,1.77
2023-01-03T12:23:34.740Z,1.90
2023-01-03T12:26:05.081Z,1.90
2023-01-03T12:28:38.571Z,1.60
2023-01-03T12:31:16.277Z,2.07
2023-01-03T12:33:48.648Z,1.67
2023-01-03T12:36:27.560Z,1.67
2023-01-03T12:39:06.353Z,2.33
2023-01-03T12:41:38.442Z,1.50
2023-01-03T12:44:15.124Z,1.53
2023-01-03T12:46:50.224Z,1.20
2023-01-03T12:49:23.502Z,1.97
2023-01-03T12:51:50.949Z,1.40
2023-01-03T12:54:30.982Z,1.40
2023-01-03T12:57:12.005Z,1.30
2023-01-03T12:59:59.464Z,1.40
2023-01-03T13:02:53.444Z,1.60
2023-01-03T13:05:32.927Z,1.17
2023-01-03T13:08:07.278Z,1.50
2023-01-03T13:10:37.919Z,1.90
2023-01-03T13:13:06.871Z,1.53
2023-01-03T13:15:37.193Z,1.67
2023-01-03T13:18:36.617Z,1.40
2023-01-03T13:21:37.296Z,1.83
2023-01-03T13:24:04.825Z,1.40
2023-01-03T13:26:32.105Z,2.10
2023-01-03T13:29:37.845Z,1.43
2023-01-03T13:32:16.570Z,1.30
2023-01-03T13:34:44.968Z,1.67
2023-01-03T13:37:42.275Z,1.50
2023-01-03T13:40:39.330Z,1.30
2023-01-03T13:43:17.747Z,1.57
2023-01-03T13:45:55.406Z,2.47
2023-01-03T13:48:31.169Z,1.47
2023-01-03T13:51:37.680Z,1.00
2023-01-03T13:54:21.777Z,1.43
2023-01-03T13:57:02.817Z,1.33
2023-01-03T13:59:41.843Z,1.20
2023-01-03T14:02:53.112Z,1.20
2023-01-03T14:05:41.569Z,1.93
2023-01-03T14:08:30.457Z,1.00
2023-01-03T14:11:30.313Z,1.50
2023-01-03T14:14:06.028Z,1.63
2023-01-03T14:16:45.286Z,1.30
2023-01-03T14:19:23.087Z,1.53
2023-01-03T14:21:57.454Z,1.60
2023-01-03T14:24:26.886Z,1.57
2023-01-03T14:27:02.777Z,2.00
2023-01-03T14:29:30.228Z,1.40
2023-01-03T14:31:59.402Z,1.57
2023-01-03T14:34:33.949Z,2.17
2023-01-03T14:37:06.611Z,3.23
2023-01-03T14:42:03.702Z,1.97
2023-01-03T14:44:31.627Z,1.70
2023-01-03T14:47:03.189Z,1.33
2023-01-03T14:49:38.950Z,2.00
2023-01-03T14:52:09.030Z,2.30
2023-01-03T14:54:37.737Z,7.30
2023-01-03T14:57:06.173Z,11.97
2023-01-03T14:59:34.496Z,10.47
2023-01-03T15:02:02.518Z,3.50
2023-01-03T15:04:29.984Z,1.83
2023-01-03T15:07:04.810Z,1.57
2023-01-03T15:09:37.100Z,1.33
2023-01-03T15:12:06.195Z,2.33
2023-01-03T15:14:38.230Z,3.30
2023-01-03T15:17:12.673Z,3.03
2023-01-03T15:19:47.161Z,1.83
2023-01-03T15:22:18.617Z,2.43
2023-01-03T15:24:47.946Z,2.80
2023-01-03T15:27:42.425Z,3.20
2023-01-03T15:30:20.034Z,2.40
2023-01-03T15:32:51.486Z,3.37
2023-01-03T15:35:20.982Z,4.20
2023-01-03T15:37:52.379Z,2.83
2023-01-03T15:40:19.635Z,4.20
2023-01-03T15:43:21.230Z,3.43
2023-01-03T15:45:56.367Z,3.90
2023-01-03T15:48:25.302Z,3.30
2023-01-03T15:50:55.168Z,4.17
2023-01-03T15:53:25.752Z,5.10
2023-01-03T15:55:56.700Z,5.13
2023-01-03T15:58:26.570Z,6.30
2023-01-03T16:00:54.064Z,4.83
2023-01-03T16:03:23.581Z,3.47
2023-01-03T16:05:50.993Z,3.00
2023-01-03T16:08:28.699Z,4.53
2023-01-03T16:10:57.900Z,4.70
2023-01-03T16:13:27.518Z,5.30
2023-01-03T16:15:56.257Z,5.53
2023-01-03T16:18:35.517Z,3.80
2023-01-03T16:21:04.175Z,5.10
2023-01-03T16:23:33.632Z,5.70
2023-01-03T16:26:01.315Z,4.37
2023-01-03T16:28:29.261Z,4.50
2023-01-03T16:31:06.798Z,4.57
2023-01-03T16:33:35.734Z,6.20
2023-01-03T16:36:04.440Z,5.90
2023-01-03T16:38:33.343Z,4.10
2023-01-03T16:41:09.831Z,5.30
2023-01-03T16:43:37.771Z,5.20
2023-01-03T16:46:05.446Z,8.47
2023-01-03T16:48:38.536Z,7.53
2023-01-03T16:51:06.044Z,6.53
2023-01-03T16:53:36.770Z,6.97
2023-01-03T16:56:06.311Z,7.30
2023-01-03T16:58:33.605Z,7.37
2023-01-03T17:01:01.613Z,5.77
2023-01-03T17:03:28.953Z,6.37
2023-01-03T17:05:56.288Z,5.73
2023-01-03T17:08:25.056Z,6.27
2023-01-03T17:10:55.338Z,6.50
2023-01-03T17:13:29.484Z,6.67
2023-01-03T17:15:57.901Z,6.40
2023-01-03T17:18:27.667Z,6.40
2023-01-03T17:20:57.476Z,5.60
2023-01-03T17:23:26.430Z,7.60
2023-01-03T17:25:53.757Z,13.63
2023-01-03T17:28:22.053Z,6.70
2023-01-03T17:30:53.618Z,7.90
2023-01-03T17:33:20.916Z,6.80
2023-01-03T17:35:49.083Z,6.53
2023-01-03T17:38:26.438Z,4.37
2023-01-03T17:40:56.792Z,6.63
2023-01-03T17:43:25.635Z,8.07
2023-01-03T17:46:19.083Z,8.43
2023-01-03T17:49:08.148Z,24.57
2023-01-03T17:51:37.358Z,24.70
2023-01-03T17:54:05.192Z,15.87
2023-01-03T17:56:32.612Z,22.23
2023-01-03T17:59:00.384Z,18.23
2023-01-03T18:01:27.835Z,12.50
2023-01-03T18:03:55.269Z,15.20
2023-01-03T18:06:25.543Z,14.27
2023-01-03T18:08:55.766Z,15.80
2023-01-03T18:11:27.196Z,13.67
2023-01-03T18:14:15.601Z,15.03
2023-01-03T18:16:43.712Z,13.23
2023-01-03T18:19:14.486Z,15.10
2023-01-03T18:21:41.857Z,11.50
2023-01-03T18:24:18.456Z,12.67
2023-01-03T18:26:49.104Z,12.23
2023-01-03T18:29:17.406Z,12.60
2023-01-03T18:31:46.140Z,11.73
2023-01-03T18:34:14.039Z,11.67
2023-01-03T18:36:44.454Z,12.20
2023-01-03T18:39:20.433Z,14.00
2023-01-03T18:41:51.670Z,12.03
2023-01-03T18:44:25.130Z,9.70
2023-01-03T18:46:56.948Z,10.70
2023-01-03T18:49:28.871Z,9.33
2023-01-03T18:51:58.342Z,8.93
2023-01-03T18:54:26.689Z,7.73
2023-01-03T18:57:04.130Z,6.70
2023-01-03T18:59:33.505Z,9.00
2023-01-03T19:02:01.681Z,9.20
2023-01-03T19:04:29.069Z,8.47
2023-01-03T19:06:56.427Z,7.43
2023-01-03T19:09:31.376Z,7.97
2023-01-03T19:12:00.998Z,8.03
2023-01-03T19:14:43.430Z,7.40
2023-01-03T19:17:15.568Z,7.10
2023-01-03T19:19:43.537Z,7.47
2023-01-03T19:22:22.502Z,8.07
2023-01-03T19:24:56.355Z,8.47
2023-01-03T19:27:32.196Z,13.40
2023-01-03T19:30:02.780Z,11.80
2023-01-03T19:32:32.805Z,9.87
2023-01-03T19:35:00.214Z,7.57
2023-01-03T19:37:28.169Z,8.03
2023-01-03T19:39:56.254Z,8.57
2023-01-03T19:42:41.538Z,8.07
2023-01-03T19:45:20.334Z,5.80
2023-01-03T19:47:47.766Z,6.17
2023-01-03T19:50:21.204Z,5.13
2023-01-03T19:52:48.873Z,3.80
2023-01-03T19:55:17.328Z,9.10
2023-01-03T19:57:47.319Z,4.10
2023-01-03T20:00:20.788Z,3.17
2023-01-03T20:02:50.972Z,4.03
2023-01-03T20:05:19.973Z,4.03
2023-01-03T20:07:48.826Z,3.93
2023-01-03T20:10:19.427Z,4.17
2023-01-03T20:12:48.120Z,4.40
2023-01-03T20:15:19.734Z,3.50
2023-01-03T20:17:47.011Z,3.67
2023-01-03T20:20:14.666Z,4.00
2023-01-03T20:25:31.937Z,3.37
2023-01-03T20:28:00.242Z,3.60
2023-01-03T20:30:29.694Z,3.20
2023-01-03T20:32:57.054Z,3.10
2023-01-03T20:38:16.106Z,3.20
2023-01-03T20:40:44.053Z,4.83
2023-01-03T20:43:13.896Z,3.53
2023-01-03T20:45:41.714Z,3.50
2023-01-03T20:48:19.285Z,4.43
2023-01-03T20:50:50.720Z,3.63
2023-01-03T20:53:19.875Z,3.83
2023-01-03T20:55:48.227Z,3.93
2023-01-03T20:58:18.383Z,6.03
2023-01-03T21:00:45.872Z,4.30
2023-01-03T21:03:13.414Z,5.63
2023-01-03T21:05:40.795Z,4.53
2023-01-03T21:08:32.808Z,5.33
2023-01-03T21:11:00.768Z,3.60
2023-01-03T21:13:28.405Z,4.43
2023-01-03T21:15:57.260Z,4.33
2023-01-03T21:18:26.509Z,3.53
2023-01-03T21:20:53.985Z,3.90
2023-01-03T21:23:23.348Z,4.60
2023-01-03T21:25:56.071Z,5.23
2023-01-03T21:28:30.444Z,6.50
2023-01-03T21:31:05.051Z,8.40
2023-01-03T21:33:35.565Z,7.83
2023-01-03T21:36:03.315Z,6.07
2023-01-03T21:38:30.600Z,4.03
2023-01-03T21:40:59.296Z,3.40
2023-01-03T21:43:32.773Z,3.23
2023-01-03T21:46:04.725Z,3.30
2023-01-03T21:48:34.702Z,3.03
2023-01-03T21:51:11.229Z,3.77
2023-01-03T21:53:47.770Z,3.60
2023-01-03T21:56:22.818Z,3.30
2023-01-03T21:58:53.193Z,3.63
2023-01-03T22:01:22.413Z,3.10
2023-01-03T22:04:10.865Z,3.40
2023-01-03T22:06:38.804Z,3.23
2023-01-03T22:09:26.176Z,4.40
2023-01-03T22:11:53.466Z,3.60
2023-01-03T22:14:21.415Z,3.30
2023-01-03T22:16:48.709Z,3.40
2023-01-03T22:19:16.091Z,4.10
2023-01-03T22:21:43.328Z,4.63
2023-01-03T22:24:10.598Z,4.40
2023-01-03T22:26:37.829Z,3.53
2023-01-03T22:29:05.828Z,3.67
2023-01-03T22:31:33.795Z,4.50
2023-01-03T22:34:04.618Z,3.70
2023-01-03T22:36:32.206Z,2.73
2023-01-03T22:38:59.439Z,4.23
2023-01-03T22:41:26.695Z,4.03
2023-01-03T22:43:54.095Z,3.27
2023-01-03T22:46:21.404Z,3.30
2023-01-03T22:48:49.427Z,3.77
2023-01-03T22:51:16.874Z,4.60
2023-01-03T22:53:45.345Z,4.30
2023-01-03T22:56:15.258Z,3.13
2023-01-03T22:58:43.261Z,2.60
2023-01-03T23:01:12.356Z,3.07
2023-01-03T23:03:40.058Z,3.20
2023-01-03T23:06:10.604Z,2.83
2023-01-03T23:08:38.737Z,3.90
2023-01-03T23:11:33.949Z,3.17
2023-01-03T23:14:03.677Z,3.43
2023-01-03T23:16:31.684Z,3.10
2023-01-03T23:19:01.247Z,2.90
2023-01-03T23:21:29.468Z,2.70
2023-01-03T23:23:56.774Z,2.83
2023-01-03T23:26:24.393Z,3.10
2023-01-03T23:28:55.066Z,2.57
2023-01-03T23:31:22.731Z,2.60
2023-01-03T23:33:50.050Z,3.00
2023-01-03T23:36:17.623Z,2.77
2023-01-03T23:38:45.724Z,2.73
2023-01-03T23:41:13.015Z,3.30
2023-01-03T23:43:40.323Z,3.27
2023-01-03T23:46:07.703Z,2.27
2023-01-03T23:48:35.139Z,2.70
2023-01-03T23:51:03.511Z,2.50
2023-01-03T23:53:31.035Z,3.27
2023-01-03T23:56:03.209Z,3.33
2023-01-03T23:58:30.563Z,3.33
